sensor_id;sensor_type;location;lat;lon;timestamp;P1;durP1;ratioP1;P2;durP2;ratioP2
22965;SDS011;11649;48.090;9.754;2023-04-24T00:01:07;3.03;;;2.65;;
22965;SDS011;11649;48.090;9.754;2023-04-24T00:03:35;4.20;;;3.03;;
22965;SDS011;11649;48.090;9.754;2023-04-24T00:06:02;3.65;;;3.08;;
22965;SDS011;11649;48.090;9.754;2023-04-24T00:08:29;4.65;;;3.17;;
22965;SDS011;11649;48.090;9.754;2023-04-24T00:10:56;4.10;;;2.92;;
22965;SDS011;11649;48.090;9.754;2023-04-24T00:13:23;3.92;;;3.10;;
22965;SDS011;11649;48.090;9.754;2023-04-24T00:15:50;3.92;;;2.83;;
22965;SDS011;11649;48.090;9.754;2023-04-24T00:18:17;3.42;;;2.40;;
22965;SDS011;11649;48.090;9.754;2023-04-24T00:20:44;3.38;;;3.05;;
22965;SDS011;11649;48.090;9.754;2023-04-24T00:23:11;4.18;;;2.95;;
22965;SDS011;11649;48.090;9.754;2023-04-24T00:25:38;3.05;;;2.72;;
22965;SDS011;11649;48.090;9.754;2023-04-24T00:28:05;4.63;;;3.03;;
22965;SDS011;11649;48.090;9.754;2023-04-24T00:30:31;3.60;;;2.97;;
22965;SDS011;11649;48.090;9.754;2023-04-24T00:32:58;4.00;;;3.00;;
22965;SDS011;11649;48.090;9.754;2023-04-24T00:35:25;3.63;;;3.00;;
22965;SDS011;11649;48.090;9.754;2023-04-24T00:37:52;4.45;;;3.22;;
22965;SDS011;11649;48.090;9.754;2023-04-24T00:40:19;5.13;;;2.80;;
22965;SDS011;11649;48.090;9.754;2023-04-24T00:42:45;3.83;;;2.90;;
22965;SDS011;11649;48.090;9.754;2023-04-24T00:45:12;3.53;;;2.70;;
22965;SDS011;11649;48.090;9.754;2023-04-24T00:47:39;4.10;;;2.80;;
22965;SDS011;11649;48.090;9.754;2023-04-24T00:50:08;4.03;;;2.80;;
22965;SDS011;11649;48.090;9.754;2023-04-24T00:52:35;4.72;;;3.13;;
22965;SDS011;11649;48.090;9.754;2023-04-24T00:55:02;3.42;;;2.90;;
22965;SDS011;11649;48.090;9.754;2023-04-24T00:57:29;3.30;;;2.90;;
22965;SDS011;11649;48.090;9.754;2023-04-24T00:59:56;3.33;;;2.80;;
22965;SDS011;11649;48.090;9.754;2023-04-24T01:02:24;3.95;;;3.10;;
22965;SDS011;11649;48.090;9.754;2023-04-24T01:04:52;3.20;;;2.65;;
22965;SDS011;11649;48.090;9.754;2023-04-24T01:07:19;3.30;;;2.65;;
22965;SDS011;11649;48.090;9.754;2023-04-24T01:09:47;3.08;;;2.78;;
22965;SDS011;11649;48.090;9.754;2023-04-24T01:12:17;3.50;;;2.83;;
22965;SDS011;11649;48.090;9.754;2023-04-24T01:14:44;3.13;;;2.80;;
22965;SDS011;11649;48.090;9.754;2023-04-24T01:17:12;3.17;;;2.50;;
22965;SDS011;11649;48.090;9.754;2023-04-24T01:19:39;5.55;;;2.75;;
22965;SDS011;11649;48.090;9.754;2023-04-24T01:22:10;5.10;;;2.90;;
22965;SDS011;11649;48.090;9.754;2023-04-24T01:24:38;4.07;;;2.67;;
22965;SDS011;11649;48.090;9.754;2023-04-24T01:27:05;3.10;;;2.70;;
22965;SDS011;11649;48.090;9.754;2023-04-24T01:29:32;3.10;;;2.75;;
22965;SDS011;11649;48.090;9.754;2023-04-24T01:31:59;3.88;;;2.92;;
22965;SDS011;11649;48.090;9.754;2023-04-24T01:34:26;3.67;;;2.80;;
22965;SDS011;11649;48.090;9.754;2023-04-24T01:36:53;3.33;;;2.70;;
22965;SDS011;11649;48.090;9.754;2023-04-24T01:39:20;3.53;;;2.60;;
22965;SDS011;11649;48.090;9.754;2023-04-24T01:41:49;4.95;;;2.88;;
22965;SDS011;11649;48.090;9.754;2023-04-24T01:44:16;3.78;;;2.63;;
22965;SDS011;11649;48.090;9.754;2023-04-24T01:46:44;3.38;;;2.60;;
22965;SDS011;11649;48.090;9.754;2023-04-24T01:49:11;3.25;;;2.38;;
22965;SDS011;11649;48.090;9.754;2023-04-24T01:51:38;2.75;;;2.47;;
22965;SDS011;11649;48.090;9.754;2023-04-24T01:54:05;2.97;;;2.47;;
22965;SDS011;11649;48.090;9.754;2023-04-24T01:56:35;2.75;;;2.47;;
22965;SDS011;11649;48.090;9.754;2023-04-24T02:01:34;4.72;;;2.88;;
22965;SDS011;11649;48.090;9.754;2023-04-24T02:04:02;3.33;;;2.75;;
22965;SDS011;11649;48.090;9.754;2023-04-24T02:06:33;3.60;;;2.92;;
22965;SDS011;11649;48.090;9.754;2023-04-24T02:09:00;3.00;;;2.70;;
22965;SDS011;11649;48.090;9.754;2023-04-24T02:11:28;3.42;;;2.63;;
22965;SDS011;11649;48.090;9.754;2023-04-24T02:13:54;4.90;;;2.97;;
22965;SDS011;11649;48.090;9.754;2023-04-24T02:16:21;4.78;;;3.10;;
22965;SDS011;11649;48.090;9.754;2023-04-24T02:18:48;3.55;;;3.05;;
22965;SDS011;11649;48.090;9.754;2023-04-24T02:21:15;4.88;;;3.05;;
22965;SDS011;11649;48.090;9.754;2023-04-24T02:23:42;3.42;;;3.13;;
22965;SDS011;11649;48.090;9.754;2023-04-24T02:26:09;3.67;;;3.10;;
22965;SDS011;11649;48.090;9.754;2023-04-24T02:28:36;3.15;;;2.85;;
22965;SDS011;11649;48.090;9.754;2023-04-24T02:31:03;4.60;;;3.30;;
22965;SDS011;11649;48.090;9.754;2023-04-24T02:33:29;4.65;;;2.78;;
22965;SDS011;11649;48.090;9.754;2023-04-24T02:35:56;3.30;;;2.67;;
22965;SDS011;11649;48.090;9.754;2023-04-24T02:38:23;4.22;;;2.90;;
22965;SDS011;11649;48.090;9.754;2023-04-24T02:40:50;5.18;;;2.80;;
22965;SDS011;11649;48.090;9.754;2023-04-24T02:43:16;3.97;;;2.78;;
22965;SDS011;11649;48.090;9.754;2023-04-24T02:45:43;3.65;;;2.70;;
22965;SDS011;11649;48.090;9.754;2023-04-24T02:48:10;4.40;;;2.80;;
22965;SDS011;11649;48.090;9.754;2023-04-24T02:50:37;2.88;;;2.40;;
22965;SDS011;11649;48.090;9.754;2023-04-24T02:53:03;2.85;;;2.38;;
22965;SDS011;11649;48.090;9.754;2023-04-24T02:55:30;3.42;;;2.30;;
22965;SDS011;11649;48.090;9.754;2023-04-24T02:57:57;4.75;;;2.20;;
22965;SDS011;11649;48.090;9.754;2023-04-24T03:00:24;2.60;;;2.40;;
22965;SDS011;11649;48.090;9.754;2023-04-24T03:02:51;4.88;;;2.72;;
22965;SDS011;11649;48.090;9.754;2023-04-24T03:05:18;2.35;;;2.15;;
22965;SDS011;11649;48.090;9.754;2023-04-24T03:07:45;2.67;;;2.10;;
22965;SDS011;11649;48.090;9.754;2023-04-24T03:10:12;2.33;;;2.13;;
22965;SDS011;11649;48.090;9.754;2023-04-24T03:12:39;2.83;;;2.20;;
22965;SDS011;11649;48.090;9.754;2023-04-24T03:15:06;2.83;;;1.98;;
22965;SDS011;11649;48.090;9.754;2023-04-24T03:17:33;4.00;;;2.20;;
22965;SDS011;11649;48.090;9.754;2023-04-24T03:20:01;2.92;;;1.92;;
22965;SDS011;11649;48.090;9.754;2023-04-24T03:22:28;2.25;;;1.70;;
22965;SDS011;11649;48.090;9.754;2023-04-24T03:24:55;2.10;;;1.73;;
22965;SDS011;11649;48.090;9.754;2023-04-24T03:27:22;2.72;;;1.70;;
22965;SDS011;11649;48.090;9.754;2023-04-24T03:29:49;2.50;;;1.50;;
22965;SDS011;11649;48.090;9.754;2023-04-24T03:32:21;2.78;;;1.80;;
22965;SDS011;11649;48.090;9.754;2023-04-24T03:34:49;2.40;;;1.92;;
22965;SDS011;11649;48.090;9.754;2023-04-24T03:37:16;2.42;;;1.70;;
22965;SDS011;11649;48.090;9.754;2023-04-24T03:39:43;3.50;;;2.03;;
22965;SDS011;11649;48.090;9.754;2023-04-24T03:42:10;4.55;;;1.70;;
22965;SDS011;11649;48.090;9.754;2023-04-24T03:44:37;2.03;;;1.50;;
22965;SDS011;11649;48.090;9.754;2023-04-24T03:47:04;2.85;;;1.60;;
22965;SDS011;11649;48.090;9.754;2023-04-24T03:49:30;3.83;;;1.60;;
22965;SDS011;11649;48.090;9.754;2023-04-24T03:51:57;2.78;;;1.50;;
22965;SDS011;11649;48.090;9.754;2023-04-24T03:54:24;1.80;;;1.25;;
22965;SDS011;11649;48.090;9.754;2023-04-24T03:56:52;1.85;;;1.40;;
22965;SDS011;11649;48.090;9.754;2023-04-24T03:59:19;1.60;;;1.08;;
22965;SDS011;11649;48.090;9.754;2023-04-24T04:01:46;1.85;;;1.25;;
22965;SDS011;11649;48.090;9.754;2023-04-24T04:04:13;2.35;;;1.25;;
22965;SDS011;11649;48.090;9.754;2023-04-24T04:06:40;1.17;;;1.05;;
22965;SDS011;11649;48.090;9.754;2023-04-24T04:09:06;2.13;;;0.90;;
22965;SDS011;11649;48.090;9.754;2023-04-24T04:11:34;3.45;;;1.17;;
22965;SDS011;11649;48.090;9.754;2023-04-24T04:14:01;2.70;;;1.10;;
22965;SDS011;11649;48.090;9.754;2023-04-24T04:16:28;1.50;;;1.08;;
22965;SDS011;11649;48.090;9.754;2023-04-24T04:18:55;1.38;;;1.00;;
22965;SDS011;11649;48.090;9.754;2023-04-24T04:21:22;3.85;;;1.30;;
22965;SDS011;11649;48.090;9.754;2023-04-24T04:23:49;2.53;;;1.40;;
22965;SDS011;11649;48.090;9.754;2023-04-24T04:26:15;1.77;;;1.40;;
22965;SDS011;11649;48.090;9.754;2023-04-24T04:28:42;0.98;;;0.90;;
22965;SDS011;11649;48.090;9.754;2023-04-24T04:31:10;2.83;;;0.80;;
22965;SDS011;11649;48.090;9.754;2023-04-24T04:33:37;1.25;;;1.15;;
22965;SDS011;11649;48.090;9.754;2023-04-24T04:36:05;2.22;;;1.20;;
22965;SDS011;11649;48.090;9.754;2023-04-24T04:38:32;1.40;;;1.30;;
22965;SDS011;11649;48.090;9.754;2023-04-24T04:40:59;1.88;;;1.35;;
22965;SDS011;11649;48.090;9.754;2023-04-24T04:43:26;1.52;;;1.10;;
22965;SDS011;11649;48.090;9.754;2023-04-24T04:45:53;1.48;;;0.93;;
22965;SDS011;11649;48.090;9.754;2023-04-24T04:48:21;1.67;;;1.13;;
22965;SDS011;11649;48.090;9.754;2023-04-24T04:50:48;3.33;;;1.05;;
22965;SDS011;11649;48.090;9.754;2023-04-24T04:53:15;1.50;;;0.90;;
22965;SDS011;11649;48.090;9.754;2023-04-24T04:55:42;1.33;;;0.90;;
22965;SDS011;11649;48.090;9.754;2023-04-24T04:58:09;4.25;;;1.15;;
22965;SDS011;11649;48.090;9.754;2023-04-24T05:00:35;2.10;;;0.90;;
22965;SDS011;11649;48.090;9.754;2023-04-24T05:03:03;1.13;;;0.90;;
22965;SDS011;11649;48.090;9.754;2023-04-24T05:05:45;2.22;;;0.90;;
22965;SDS011;11649;48.090;9.754;2023-04-24T05:08:12;1.20;;;0.85;;
22965;SDS011;11649;48.090;9.754;2023-04-24T05:10:52;1.95;;;1.52;;
22965;SDS011;11649;48.090;9.754;2023-04-24T05:13:19;1.73;;;1.10;;
22965;SDS011;11649;48.090;9.754;2023-04-24T05:15:57;1.33;;;1.23;;
22965;SDS011;11649;48.090;9.754;2023-04-24T05:18:24;1.75;;;1.30;;
22965;SDS011;11649;48.090;9.754;2023-04-24T05:20:51;2.08;;;1.20;;
22965;SDS011;11649;48.090;9.754;2023-04-24T05:23:17;2.03;;;1.40;;
22965;SDS011;11649;48.090;9.754;2023-04-24T05:25:44;2.33;;;1.30;;
22965;SDS011;11649;48.090;9.754;2023-04-24T05:28:12;1.48;;;0.70;;
22965;SDS011;11649;48.090;9.754;2023-04-24T05:30:39;1.00;;;0.90;;
22965;SDS011;11649;48.090;9.754;2023-04-24T05:33:05;1.98;;;1.00;;
22965;SDS011;11649;48.090;9.754;2023-04-24T05:35:32;2.30;;;1.08;;
22965;SDS011;11649;48.090;9.754;2023-04-24T05:37:59;1.33;;;1.10;;
22965;SDS011;11649;48.090;9.754;2023-04-24T05:40:26;2.28;;;1.20;;
22965;SDS011;11649;48.090;9.754;2023-04-24T05:42:52;1.55;;;1.38;;
22965;SDS011;11649;48.090;9.754;2023-04-24T05:45:19;1.10;;;1.00;;
22965;SDS011;11649;48.090;9.754;2023-04-24T05:47:46;2.97;;;0.80;;
22965;SDS011;11649;48.090;9.754;2023-04-24T05:50:13;1.50;;;0.80;;
22965;SDS011;11649;48.090;9.754;2023-04-24T05:52:40;1.30;;;0.90;;
22965;SDS011;11649;48.090;9.754;2023-04-24T05:55:07;0.95;;;0.80;;
22965;SDS011;11649;48.090;9.754;2023-04-24T05:57:34;0.80;;;0.70;;
22965;SDS011;11649;48.090;9.754;2023-04-24T06:00:01;2.80;;;2.20;;
22965;SDS011;11649;48.090;9.754;2023-04-24T06:02:28;1.45;;;1.30;;
22965;SDS011;11649;48.090;9.754;2023-04-24T06:04:58;1.60;;;1.05;;
22965;SDS011;11649;48.090;9.754;2023-04-24T06:07:26;1.38;;;0.80;;
22965;SDS011;11649;48.090;9.754;2023-04-24T06:09:52;1.48;;;0.60;;
22965;SDS011;11649;48.090;9.754;2023-04-24T06:12:19;1.15;;;0.90;;
22965;SDS011;11649;48.090;9.754;2023-04-24T06:14:46;2.08;;;0.80;;
22965;SDS011;11649;48.090;9.754;2023-04-24T06:17:13;0.60;;;0.50;;
22965;SDS011;11649;48.090;9.754;2023-04-24T06:19:40;0.73;;;0.60;;
22965;SDS011;11649;48.090;9.754;2023-04-24T06:22:07;0.50;;;0.50;;
22965;SDS011;11649;48.090;9.754;2023-04-24T06:24:36;2.90;;;1.02;;
22965;SDS011;11649;48.090;9.754;2023-04-24T06:27:03;1.98;;;1.48;;
22965;SDS011;11649;48.090;9.754;2023-04-24T06:29:29;3.42;;;1.90;;
22965;SDS011;11649;48.090;9.754;2023-04-24T06:31:56;3.47;;;2.05;;
22965;SDS011;11649;48.090;9.754;2023-04-24T06:34:23;2.92;;;2.22;;
22965;SDS011;11649;48.090;9.754;2023-04-24T06:36:50;3.53;;;2.90;;
22965;SDS011;11649;48.090;9.754;2023-04-24T06:39:17;6.78;;;3.95;;
22965;SDS011;11649;48.090;9.754;2023-04-24T06:41:44;5.50;;;4.03;;
22965;SDS011;11649;48.090;9.754;2023-04-24T06:44:11;8.57;;;4.93;;
22965;SDS011;11649;48.090;9.754;2023-04-24T06:46:37;7.35;;;4.65;;
22965;SDS011;11649;48.090;9.754;2023-04-24T06:49:06;6.63;;;5.30;;
22965;SDS011;11649;48.090;9.754;2023-04-24T06:51:34;8.48;;;5.25;;
22965;SDS011;11649;48.090;9.754;2023-04-24T06:54:01;9.63;;;6.20;;
22965;SDS011;11649;48.090;9.754;2023-04-24T06:56:28;7.78;;;6.20;;
22965;SDS011;11649;48.090;9.754;2023-04-24T06:58:55;10.77;;;5.88;;
22965;SDS011;11649;48.090;9.754;2023-04-24T07:01:22;9.50;;;6.45;;
22965;SDS011;11649;48.090;9.754;2023-04-24T07:03:49;14.98;;;6.35;;
22965;SDS011;11649;48.090;9.754;2023-04-24T07:06:16;10.68;;;6.30;;
22965;SDS011;11649;48.090;9.754;2023-04-24T07:08:45;8.00;;;5.20;;
22965;SDS011;11649;48.090;9.754;2023-04-24T07:11:12;7.45;;;5.38;;
22965;SDS011;11649;48.090;9.754;2023-04-24T07:13:39;7.28;;;5.60;;
22965;SDS011;11649;48.090;9.754;2023-04-24T07:16:08;8.93;;;5.65;;
22965;SDS011;11649;48.090;9.754;2023-04-24T07:18:36;9.13;;;5.60;;
22965;SDS011;11649;48.090;9.754;2023-04-24T07:21:03;5.65;;;5.00;;
22965;SDS011;11649;48.090;9.754;2023-04-24T07:23:30;6.07;;;4.55;;
22965;SDS011;11649;48.090;9.754;2023-04-24T07:25:57;5.93;;;3.90;;
22965;SDS011;11649;48.090;9.754;2023-04-24T07:28:24;4.65;;;3.78;;
22965;SDS011;11649;48.090;9.754;2023-04-24T07:30:51;5.20;;;3.78;;
22965;SDS011;11649;48.090;9.754;2023-04-24T07:33:20;4.55;;;3.00;;
22965;SDS011;11649;48.090;9.754;2023-04-24T07:35:47;3.28;;;2.78;;
22965;SDS011;11649;48.090;9.754;2023-04-24T07:38:14;3.88;;;2.58;;
22965;SDS011;11649;48.090;9.754;2023-04-24T07:40:41;4.82;;;2.40;;
22965;SDS011;11649;48.090;9.754;2023-04-24T07:43:08;2.83;;;2.30;;
22965;SDS011;11649;48.090;9.754;2023-04-24T07:45:34;3.53;;;2.45;;
22965;SDS011;11649;48.090;9.754;2023-04-24T07:48:03;2.53;;;2.33;;
22965;SDS011;11649;48.090;9.754;2023-04-24T07:50:30;3.65;;;2.40;;
22965;SDS011;11649;48.090;9.754;2023-04-24T07:52:57;3.60;;;2.75;;
22965;SDS011;11649;48.090;9.754;2023-04-24T07:55:24;2.45;;;2.15;;
22965;SDS011;11649;48.090;9.754;2023-04-24T07:57:53;3.20;;;2.30;;
22965;SDS011;11649;48.090;9.754;2023-04-24T08:00:20;2.53;;;1.92;;
22965;SDS011;11649;48.090;9.754;2023-04-24T08:02:47;4.95;;;3.17;;
22965;SDS011;11649;48.090;9.754;2023-04-24T08:05:14;3.95;;;2.35;;
22965;SDS011;11649;48.090;9.754;2023-04-24T08:07:41;4.53;;;2.75;;
22965;SDS011;11649;48.090;9.754;2023-04-24T08:10:12;3.08;;;2.30;;
22965;SDS011;11649;48.090;9.754;2023-04-24T08:12:39;3.58;;;2.22;;
22965;SDS011;11649;48.090;9.754;2023-04-24T08:15:07;3.17;;;2.15;;
22965;SDS011;11649;48.090;9.754;2023-04-24T08:17:34;3.92;;;2.50;;
22965;SDS011;11649;48.090;9.754;2023-04-24T08:20:03;2.40;;;2.20;;
22965;SDS011;11649;48.090;9.754;2023-04-24T08:22:31;13.95;;;2.25;;
22965;SDS011;11649;48.090;9.754;2023-04-24T08:24:59;3.85;;;2.03;;
22965;SDS011;11649;48.090;9.754;2023-04-24T08:27:26;8.45;;;2.20;;
22965;SDS011;11649;48.090;9.754;2023-04-24T08:29:53;3.13;;;2.22;;
22965;SDS011;11649;48.090;9.754;2023-04-24T08:32:20;2.95;;;2.15;;
22965;SDS011;11649;48.090;9.754;2023-04-24T08:34:47;2.80;;;1.80;;
22965;SDS011;11649;48.090;9.754;2023-04-24T08:37:15;1.70;;;1.60;;
22965;SDS011;11649;48.090;9.754;2023-04-24T08:39:42;3.28;;;2.72;;
22965;SDS011;11649;48.090;9.754;2023-04-24T08:42:09;3.60;;;2.72;;
22965;SDS011;11649;48.090;9.754;2023-04-24T08:44:39;4.15;;;2.40;;
22965;SDS011;11649;48.090;9.754;2023-04-24T08:47:06;2.58;;;2.20;;
22965;SDS011;11649;48.090;9.754;2023-04-24T08:49:35;3.55;;;2.58;;
22965;SDS011;11649;48.090;9.754;2023-04-24T08:52:03;4.20;;;2.78;;
22965;SDS011;11649;48.090;9.754;2023-04-24T08:54:35;3.50;;;2.80;;
22965;SDS011;11649;48.090;9.754;2023-04-24T08:57:03;3.47;;;2.50;;
22965;SDS011;11649;48.090;9.754;2023-04-24T08:59:30;3.25;;;2.20;;
22965;SDS011;11649;48.090;9.754;2023-04-24T09:01:57;3.50;;;2.58;;
22965;SDS011;11649;48.090;9.754;2023-04-24T09:04:25;3.70;;;2.25;;
22965;SDS011;11649;48.090;9.754;2023-04-24T09:06:55;5.55;;;2.45;;
22965;SDS011;11649;48.090;9.754;2023-04-24T09:09:23;3.53;;;2.63;;
22965;SDS011;11649;48.090;9.754;2023-04-24T09:11:51;3.03;;;2.35;;
22965;SDS011;11649;48.090;9.754;2023-04-24T09:14:21;3.60;;;2.58;;
22965;SDS011;11649;48.090;9.754;2023-04-24T09:16:49;5.18;;;2.63;;
22965;SDS011;11649;48.090;9.754;2023-04-24T09:19:17;6.13;;;2.80;;
22965;SDS011;11649;48.090;9.754;2023-04-24T09:21:45;3.42;;;2.83;;
22965;SDS011;11649;48.090;9.754;2023-04-24T09:24:16;4.25;;;3.00;;
22965;SDS011;11649;48.090;9.754;2023-04-24T09:26:44;4.65;;;3.55;;
22965;SDS011;11649;48.090;9.754;2023-04-24T09:29:15;5.72;;;3.90;;
22965;SDS011;11649;48.090;9.754;2023-04-24T09:31:43;6.15;;;3.60;;
22965;SDS011;11649;48.090;9.754;2023-04-24T09:34:11;2.95;;;2.65;;
22965;SDS011;11649;48.090;9.754;2023-04-24T09:36:39;3.05;;;2.38;;
22965;SDS011;11649;48.090;9.754;2023-04-24T09:39:08;2.70;;;2.33;;
22965;SDS011;11649;48.090;9.754;2023-04-24T09:41:55;4.25;;;2.50;;
22965;SDS011;11649;48.090;9.754;2023-04-24T09:44:27;2.47;;;2.00;;
22965;SDS011;11649;48.090;9.754;2023-04-24T09:46:55;3.80;;;2.00;;
22965;SDS011;11649;48.090;9.754;2023-04-24T09:49:32;7.70;;;2.40;;
22965;SDS011;11649;48.090;9.754;2023-04-24T09:52:07;2.38;;;1.65;;
22965;SDS011;11649;48.090;9.754;2023-04-24T09:54:36;2.85;;;2.05;;
22965;SDS011;11649;48.090;9.754;2023-04-24T09:57:04;4.10;;;1.70;;
22965;SDS011;11649;48.090;9.754;2023-04-24T09:59:33;2.35;;;1.60;;
22965;SDS011;11649;48.090;9.754;2023-04-24T10:02:02;4.00;;;1.70;;
22965;SDS011;11649;48.090;9.754;2023-04-24T10:04:29;4.95;;;2.30;;
22965;SDS011;11649;48.090;9.754;2023-04-24T10:06:56;3.45;;;1.80;;
22965;SDS011;11649;48.090;9.754;2023-04-24T10:09:24;4.45;;;1.77;;
22965;SDS011;11649;48.090;9.754;2023-04-24T10:11:52;3.22;;;1.67;;
22965;SDS011;11649;48.090;9.754;2023-04-24T10:14:22;2.53;;;1.60;;
22965;SDS011;11649;48.090;9.754;2023-04-24T10:16:52;2.85;;;1.60;;
22965;SDS011;11649;48.090;9.754;2023-04-24T10:19:20;3.28;;;1.70;;
22965;SDS011;11649;48.090;9.754;2023-04-24T10:21:47;4.03;;;1.38;;
22965;SDS011;11649;48.090;9.754;2023-04-24T10:24:15;3.50;;;1.90;;
22965;SDS011;11649;48.090;9.754;2023-04-24T10:26:44;2.35;;;1.10;;
22965;SDS011;11649;48.090;9.754;2023-04-24T10:29:12;3.85;;;1.70;;
22965;SDS011;11649;48.090;9.754;2023-04-24T10:31:41;2.63;;;1.40;;
22965;SDS011;11649;48.090;9.754;2023-04-24T10:34:12;3.03;;;1.30;;
22965;SDS011;11649;48.090;9.754;2023-04-24T10:36:48;3.50;;;1.65;;
22965;SDS011;11649;48.090;9.754;2023-04-24T10:39:19;1.60;;;1.40;;
22965;SDS011;11649;48.090;9.754;2023-04-24T10:41:53;4.20;;;1.20;;
22965;SDS011;11649;48.090;9.754;2023-04-24T10:44:23;2.08;;;1.40;;
22965;SDS011;11649;48.090;9.754;2023-04-24T10:46:54;1.67;;;1.33;;
22965;SDS011;11649;48.090;9.754;2023-04-24T10:49:28;2.53;;;1.70;;
22965;SDS011;11649;48.090;9.754;2023-04-24T10:51:59;1.85;;;1.50;;
22965;SDS011;11649;48.090;9.754;2023-04-24T10:54:29;4.72;;;1.70;;
22965;SDS011;11649;48.090;9.754;2023-04-24T10:57:25;1.83;;;1.65;;
22965;SDS011;11649;48.090;9.754;2023-04-24T11:00:13;3.55;;;1.60;;
22965;SDS011;11649;48.090;9.754;2023-04-24T11:02:40;3.28;;;1.75;;
22965;SDS011;11649;48.090;9.754;2023-04-24T11:05:15;2.75;;;1.90;;
22965;SDS011;11649;48.090;9.754;2023-04-24T11:10:57;3.92;;;1.67;;
22965;SDS011;11649;48.090;9.754;2023-04-24T11:13:28;5.63;;;1.55;;
22965;SDS011;11649;48.090;9.754;2023-04-24T11:16:15;5.30;;;1.60;;
22965;SDS011;11649;48.090;9.754;2023-04-24T11:19:08;2.42;;;1.50;;
22965;SDS011;11649;48.090;9.754;2023-04-24T11:27:14;2.47;;;1.50;;
22965;SDS011;11649;48.090;9.754;2023-04-24T11:37:43;2.42;;;1.20;;
22965;SDS011;11649;48.090;9.754;2023-04-24T11:40:35;1.85;;;1.20;;
22965;SDS011;11649;48.090;9.754;2023-04-24T11:43:04;1.95;;;1.30;;
22965;SDS011;11649;48.090;9.754;2023-04-24T11:45:33;2.15;;;1.30;;
22965;SDS011;11649;48.090;9.754;2023-04-24T11:48:02;2.53;;;1.55;;
22965;SDS011;11649;48.090;9.754;2023-04-24T11:50:30;3.08;;;1.63;;
22965;SDS011;11649;48.090;9.754;2023-04-24T11:52:56;3.75;;;1.50;;
22965;SDS011;11649;48.090;9.754;2023-04-24T11:55:24;1.88;;;1.27;;
22965;SDS011;11649;48.090;9.754;2023-04-24T11:57:54;3.40;;;1.52;;
22965;SDS011;11649;48.090;9.754;2023-04-24T12:00:26;2.95;;;1.40;;
22965;SDS011;11649;48.090;9.754;2023-04-24T12:05:35;5.55;;;1.30;;
22965;SDS011;11649;48.090;9.754;2023-04-24T12:08:03;1.88;;;1.20;;
22965;SDS011;11649;48.090;9.754;2023-04-24T12:10:30;2.78;;;1.30;;
22965;SDS011;11649;48.090;9.754;2023-04-24T12:12:59;2.33;;;1.42;;
22965;SDS011;11649;48.090;9.754;2023-04-24T12:15:26;3.50;;;1.30;;
22965;SDS011;11649;48.090;9.754;2023-04-24T12:17:54;2.55;;;1.55;;
22965;SDS011;11649;48.090;9.754;2023-04-24T12:20:26;2.85;;;1.50;;
22965;SDS011;11649;48.090;9.754;2023-04-24T12:22:58;1.98;;;1.42;;
22965;SDS011;11649;48.090;9.754;2023-04-24T12:25:26;2.10;;;1.30;;
22965;SDS011;11649;48.090;9.754;2023-04-24T12:30:29;1.73;;;1.15;;
22965;SDS011;11649;48.090;9.754;2023-04-24T12:32:59;1.98;;;1.20;;
22965;SDS011;11649;48.090;9.754;2023-04-24T12:35:27;5.05;;;1.30;;
22965;SDS011;11649;48.090;9.754;2023-04-24T12:37:55;3.15;;;1.48;;
22965;SDS011;11649;48.090;9.754;2023-04-24T12:40:27;2.60;;;1.20;;
22965;SDS011;11649;48.090;9.754;2023-04-24T12:42:55;1.77;;;1.30;;
22965;SDS011;11649;48.090;9.754;2023-04-24T12:45:23;3.03;;;1.23;;
22965;SDS011;11649;48.090;9.754;2023-04-24T12:47:51;1.20;;;1.02;;
22965;SDS011;11649;48.090;9.754;2023-04-24T12:50:18;2.80;;;1.17;;
22965;SDS011;11649;48.090;9.754;2023-04-24T12:52:45;2.80;;;1.35;;
22965;SDS011;11649;48.090;9.754;2023-04-24T12:55:12;3.13;;;1.20;;
22965;SDS011;11649;48.090;9.754;2023-04-24T12:57:39;2.72;;;1.10;;
22965;SDS011;11649;48.090;9.754;2023-04-24T13:00:06;1.83;;;1.33;;
22965;SDS011;11649;48.090;9.754;2023-04-24T13:02:34;2.28;;;1.23;;
22965;SDS011;11649;48.090;9.754;2023-04-24T13:05:01;4.10;;;1.25;;
22965;SDS011;11649;48.090;9.754;2023-04-24T13:07:28;1.20;;;1.10;;
22965;SDS011;11649;48.090;9.754;2023-04-24T13:09:55;1.88;;;1.10;;
22965;SDS011;11649;48.090;9.754;2023-04-24T13:12:23;1.20;;;1.02;;
22965;SDS011;11649;48.090;9.754;2023-04-24T13:14:51;1.95;;;1.20;;
22965;SDS011;11649;48.090;9.754;2023-04-24T13:17:19;3.30;;;1.23;;
22965;SDS011;11649;48.090;9.754;2023-04-24T13:19:46;1.67;;;1.13;;
22965;SDS011;11649;48.090;9.754;2023-04-24T13:22:16;1.30;;;1.10;;
22965;SDS011;11649;48.090;9.754;2023-04-24T13:24:44;2.88;;;1.30;;
22965;SDS011;11649;48.090;9.754;2023-04-24T13:27:11;2.13;;;1.20;;
22965;SDS011;11649;48.090;9.754;2023-04-24T13:29:38;2.20;;;1.20;;
22965;SDS011;11649;48.090;9.754;2023-04-24T13:32:05;3.42;;;1.00;;
22965;SDS011;11649;48.090;9.754;2023-04-24T13:34:32;1.00;;;0.90;;
22965;SDS011;11649;48.090;9.754;2023-04-24T13:37:00;2.38;;;1.10;;
22965;SDS011;11649;48.090;9.754;2023-04-24T13:39:27;1.67;;;1.00;;
22965;SDS011;11649;48.090;9.754;2023-04-24T13:41:54;2.03;;;0.88;;
22965;SDS011;11649;48.090;9.754;2023-04-24T13:44:21;1.40;;;0.80;;
22965;SDS011;11649;48.090;9.754;2023-04-24T13:46:52;1.17;;;0.77;;
22965;SDS011;11649;48.090;9.754;2023-04-24T13:49:22;1.25;;;0.85;;
22965;SDS011;11649;48.090;9.754;2023-04-24T13:51:53;1.25;;;0.98;;
22965;SDS011;11649;48.090;9.754;2023-04-24T13:54:21;0.82;;;0.80;;
22965;SDS011;11649;48.090;9.754;2023-04-24T13:56:49;2.05;;;0.77;;
22965;SDS011;11649;48.090;9.754;2023-04-24T13:59:17;2.50;;;0.90;;
22965;SDS011;11649;48.090;9.754;2023-04-24T14:01:43;3.95;;;0.80;;
22965;SDS011;11649;48.090;9.754;2023-04-24T14:04:11;2.55;;;0.80;;
22965;SDS011;11649;48.090;9.754;2023-04-24T14:06:38;2.08;;;0.60;;
22965;SDS011;11649;48.090;9.754;2023-04-24T14:09:05;1.42;;;0.70;;
22965;SDS011;11649;48.090;9.754;2023-04-24T14:11:33;1.48;;;0.70;;
22965;SDS011;11649;48.090;9.754;2023-04-24T14:14:00;1.70;;;0.70;;
22965;SDS011;11649;48.090;9.754;2023-04-24T14:16:27;0.60;;;0.60;;
22965;SDS011;11649;48.090;9.754;2023-04-24T14:18:55;2.47;;;0.93;;
22965;SDS011;11649;48.090;9.754;2023-04-24T14:21:22;3.80;;;0.90;;
22965;SDS011;11649;48.090;9.754;2023-04-24T14:23:49;3.15;;;0.90;;
22965;SDS011;11649;48.090;9.754;2023-04-24T14:26:16;1.58;;;1.00;;
22965;SDS011;11649;48.090;9.754;2023-04-24T14:28:43;0.88;;;0.70;;
22965;SDS011;11649;48.090;9.754;2023-04-24T14:31:09;1.35;;;0.82;;
22965;SDS011;11649;48.090;9.754;2023-04-24T14:33:37;2.08;;;0.80;;
22965;SDS011;11649;48.090;9.754;2023-04-24T14:36:04;1.30;;;0.90;;
22965;SDS011;11649;48.090;9.754;2023-04-24T14:38:31;2.63;;;1.10;;
22965;SDS011;11649;48.090;9.754;2023-04-24T14:40:58;1.75;;;0.90;;
22965;SDS011;11649;48.090;9.754;2023-04-24T14:43:33;1.55;;;0.93;;
22965;SDS011;11649;48.090;9.754;2023-04-24T14:46:01;2.42;;;1.10;;
22965;SDS011;11649;48.090;9.754;2023-04-24T14:48:29;0.98;;;0.80;;
22965;SDS011;11649;48.090;9.754;2023-04-24T14:50:56;1.00;;;0.82;;
22965;SDS011;11649;48.090;9.754;2023-04-24T14:53:23;2.17;;;1.02;;
22965;SDS011;11649;48.090;9.754;2023-04-24T14:55:50;1.45;;;1.00;;
22965;SDS011;11649;48.090;9.754;2023-04-24T14:58:17;1.92;;;1.10;;
22965;SDS011;11649;48.090;9.754;2023-04-24T15:00:44;1.83;;;1.00;;
22965;SDS011;11649;48.090;9.754;2023-04-24T15:03:10;1.75;;;0.90;;
22965;SDS011;11649;48.090;9.754;2023-04-24T15:05:37;1.55;;;0.80;;
22965;SDS011;11649;48.090;9.754;2023-04-24T15:08:05;0.93;;;0.80;;
22965;SDS011;11649;48.090;9.754;2023-04-24T15:10:31;2.53;;;0.90;;
22965;SDS011;11649;48.090;9.754;2023-04-24T15:12:59;6.63;;;0.90;;
22965;SDS011;11649;48.090;9.754;2023-04-24T15:15:25;1.45;;;0.90;;
22965;SDS011;11649;48.090;9.754;2023-04-24T15:17:52;2.60;;;1.05;;